createdAt,value
2022-09-18T00:00:40.014Z,0.00
2022-09-18T00:01:40.176Z,0.00
2022-09-18T00:02:40.116Z,0.00
2022-09-18T00:03:39.978Z,0.00
2022-09-18T00:04:39.962Z,0.00
2022-09-18T00:05:39.940Z,0.00
2022-09-18T00:06:39.952Z,0.00
2022-09-18T00:07:39.950Z,0.00
2022-09-18T00:08:39.922Z,0.00
2022-09-18T00:09:40.014Z,0.00
2022-09-18T00:10:39.910Z,0.00
2022-09-18T00:11:39.900Z,0.00
2022-09-18T00:12:39.941Z,0.00
2022-09-18T00:13:39.910Z,0.00
2022-09-18T00:14:39.830Z,0.00
2022-09-18T00:15:39.852Z,0.00
2022-09-18T00:16:39.941Z,0.00
2022-09-18T00:17:39.849Z,0.00
2022-09-18T00:18:39.809Z,0.00
2022-09-18T00:19:39.790Z,0.00
2022-09-18T00:20:39.771Z,0.00
2022-09-18T00:21:39.850Z,0.00
2022-09-18T00:22:39.779Z,0.00
2022-09-18T00:23:39.762Z,0.00
2022-09-18T00:24:39.809Z,0.00
2022-09-18T00:25:39.770Z,0.00
2022-09-18T00:26:39.730Z,0.00
2022-09-18T00:27:39.701Z,0.00
2022-09-18T00:28:39.720Z,0.00
2022-09-18T00:29:39.701Z,0.00
2022-09-18T00:30:39.715Z,0.00
2022-09-18T00:31:39.771Z,0.00
2022-09-18T00:32:39.690Z,0.00
2022-09-18T00:33:39.669Z,0.00
2022-09-18T00:34:39.635Z,0.00
2022-09-18T00:35:39.639Z,0.00
2022-09-18T00:36:39.650Z,0.00
2022-09-18T00:37:39.629Z,0.00
2022-09-18T00:38:39.601Z,0.00
2022-09-18T00:39:39.611Z,0.00
2022-09-18T00:40:39.672Z,0.00
2022-09-18T00:41:39.578Z,0.00
2022-09-18T00:42:39.539Z,0.00
2022-09-18T00:43:39.561Z,0.00
2022-09-18T00:44:39.552Z,0.00
2022-09-18T00:45:39.511Z,0.00
2022-09-18T00:46:39.553Z,0.00
2022-09-18T00:47:39.516Z,0.00
2022-09-18T00:48:39.479Z,0.00
2022-09-18T00:49:39.480Z,0.00
2022-09-18T00:50:39.498Z,0.00
2022-09-18T00:51:39.461Z,0.00
2022-09-18T00:52:39.458Z,0.00
2022-09-18T00:53:39.439Z,0.00
2022-09-18T00:54:39.459Z,0.00
2022-09-18T00:55:39.428Z,0.00
2022-09-18T00:56:39.460Z,0.00
2022-09-18T00:57:39.448Z,0.00
2022-09-18T00:58:39.436Z,0.00
2022-09-18T00:59:39.359Z,0.00
2022-09-18T01:00:39.431Z,0.00
2022-09-18T01:01:39.373Z,0.00
2022-09-18T01:02:39.356Z,0.00
2022-09-18T01:03:39.318Z,0.00
2022-09-18T01:04:39.318Z,0.00
2022-09-18T01:05:39.331Z,0.00
2022-09-18T01:06:39.310Z,0.00
2022-09-18T01:07:39.278Z,0.00
2022-09-18T01:08:43.299Z,0.00
2022-09-18T01:09:39.281Z,0.00
2022-09-18T01:10:39.247Z,0.00
2022-09-18T01:11:39.248Z,0.00
2022-09-18T01:12:39.268Z,0.00
2022-09-18T01:13:39.228Z,0.00
2022-09-18T01:14:39.218Z,0.00
2022-09-18T01:15:39.179Z,0.00
2022-09-18T01:16:39.260Z,0.00
2022-09-18T01:17:39.257Z,0.00
2022-09-18T01:18:39.177Z,0.00
2022-09-18T01:19:39.167Z,0.00
2022-09-18T01:20:39.158Z,0.00
2022-09-18T01:21:39.168Z,0.00
2022-09-18T01:22:39.131Z,0.00
2022-09-18T01:23:39.166Z,0.00
2022-09-18T01:24:39.107Z,0.00
2022-09-18T01:25:39.187Z,0.00
2022-09-18T01:26:39.074Z,0.00
2022-09-18T01:27:39.158Z,0.00
2022-09-18T01:28:39.066Z,0.00
2022-09-18T01:29:39.050Z,0.00
2022-09-18T01:30:39.027Z,0.00
2022-09-18T01:31:39.151Z,0.00
2022-09-18T01:32:39.057Z,0.00
2022-09-18T01:33:39.047Z,0.00
2022-09-18T01:34:38.987Z,0.00
2022-09-18T01:35:42.000Z,0.00
2022-09-18T01:36:38.946Z,0.00
2022-09-18T01:37:38.998Z,0.00
2022-09-18T01:38:38.948Z,0.00
2022-09-18T01:39:38.954Z,0.00
2022-09-18T01:40:39.064Z,0.00
2022-09-18T01:41:38.917Z,0.00
2022-09-18T01:42:38.925Z,0.00
2022-09-18T01:43:38.907Z,0.00
2022-09-18T01:44:38.895Z,0.00
2022-09-18T01:45:38.876Z,0.00
2022-09-18T01:46:38.956Z,0.00
2022-09-18T01:47:38.876Z,0.00
2022-09-18T01:48:38.859Z,0.00
2022-09-18T01:49:38.856Z,0.00
2022-09-18T01:50:38.842Z,0.00
2022-09-18T01:51:38.828Z,0.00
2022-09-18T01:52:38.815Z,0.00
2022-09-18T01:53:38.846Z,0.00
2022-09-18T01:54:38.805Z,0.00
2022-09-18T01:55:38.783Z,0.00
2022-09-18T01:56:38.777Z,0.00
2022-09-18T01:57:38.816Z,0.00
2022-09-18T01:58:38.737Z,0.00
2022-09-18T01:59:38.735Z,0.00
2022-09-18T02:00:38.716Z,0.00
2022-09-18T02:01:38.861Z,0.00
2022-09-18T02:02:38.888Z,0.00
2022-09-18T02:03:38.685Z,0.00
2022-09-18T02:04:38.697Z,0.00
2022-09-18T02:05:38.680Z,0.00
2022-09-18T02:06:38.644Z,0.00
2022-09-18T02:07:38.675Z,0.00
2022-09-18T02:08:38.656Z,0.00
2022-09-18T02:09:38.624Z,0.00
2022-09-18T02:10:38.632Z,0.00
2022-09-18T02:11:38.613Z,0.00
2022-09-18T02:12:38.584Z,0.00
2022-09-18T02:13:38.564Z,0.00
2022-09-18T02:14:38.554Z,0.00
2022-09-18T02:15:38.586Z,0.00
2022-09-18T02:16:38.544Z,0.00
2022-09-18T02:17:38.534Z,0.00
2022-09-18T02:18:38.556Z,0.00
2022-09-18T02:19:38.524Z,0.00
2022-09-18T02:20:38.494Z,0.00
2022-09-18T02:21:38.474Z,0.00
2022-09-18T02:22:38.493Z,0.00
2022-09-18T02:23:38.484Z,0.00
2022-09-18T02:24:38.466Z,0.00
2022-09-18T02:25:38.454Z,0.00
2022-09-18T02:26:38.478Z,0.00
2022-09-18T02:27:38.444Z,0.00
2022-09-18T02:28:38.455Z,0.00
2022-09-18T02:29:38.434Z,0.00
2022-09-18T02:30:38.406Z,0.00
2022-09-18T02:31:38.390Z,0.00
2022-09-18T02:32:38.346Z,0.00
2022-09-18T02:33:38.427Z,0.00
2022-09-18T02:34:38.352Z,0.00
2022-09-18T02:35:38.358Z,0.00
2022-09-18T02:36:38.337Z,0.00
2022-09-18T02:37:38.334Z,0.00
2022-09-18T02:38:38.293Z,0.00
2022-09-18T02:39:38.283Z,0.00
2022-09-18T02:40:38.380Z,0.00
2022-09-18T02:41:38.283Z,0.00
2022-09-18T02:42:38.262Z,0.00
2022-09-18T02:43:38.273Z,0.00
2022-09-18T02:44:38.327Z,0.00
2022-09-18T02:45:38.260Z,0.00
2022-09-18T02:46:38.260Z,0.00
2022-09-18T02:47:38.225Z,0.00
2022-09-18T02:48:38.232Z,0.00
2022-09-18T02:49:38.205Z,0.00
2022-09-18T02:50:38.211Z,0.00
2022-09-18T02:51:38.194Z,0.00
2022-09-18T02:52:38.164Z,0.00
2022-09-18T02:53:38.173Z,0.00
2022-09-18T02:54:38.132Z,0.00
2022-09-18T02:55:38.152Z,0.00
2022-09-18T02:56:38.142Z,0.00
2022-09-18T02:57:38.102Z,0.00
2022-09-18T02:58:38.101Z,0.00
2022-09-18T02:59:38.139Z,0.00
2022-09-18T03:00:38.082Z,0.00
2022-09-18T03:01:38.179Z,0.00
2022-09-18T03:02:38.083Z,0.00
2022-09-18T03:03:38.045Z,0.00
2022-09-18T03:04:38.040Z,0.00
2022-09-18T03:05:38.042Z,0.00
2022-09-18T03:06:38.012Z,0.00
2022-09-18T03:07:38.011Z,0.00
2022-09-18T03:08:38.011Z,0.00
2022-09-18T03:09:38.013Z,0.00
2022-09-18T03:10:38.001Z,0.00
2022-09-18T03:11:37.961Z,0.00
2022-09-18T03:12:37.943Z,0.00
2022-09-18T03:13:37.965Z,0.00
2022-09-18T03:14:37.961Z,0.00
2022-09-18T03:15:37.946Z,0.00
2022-09-18T03:16:37.920Z,0.00
2022-09-18T03:17:37.897Z,0.00
2022-09-18T03:18:37.892Z,0.00
2022-09-18T03:19:37.893Z,0.00
2022-09-18T03:20:37.850Z,0.00
2022-09-18T03:21:37.862Z,0.00
2022-09-18T03:22:37.845Z,0.00
2022-09-18T03:23:40.261Z,0.00
2022-09-18T03:24:38.771Z,0.00
2022-09-18T03:25:37.789Z,0.00
2022-09-18T03:26:37.791Z,0.00
2022-09-18T03:27:37.837Z,0.00
2022-09-18T03:28:37.809Z,0.00
2022-09-18T03:29:37.802Z,0.00
2022-09-18T03:30:37.745Z,0.00
2022-09-18T03:31:37.799Z,0.00
2022-09-18T03:32:37.741Z,0.00
2022-09-18T03:33:37.758Z,0.00
2022-09-18T03:34:37.723Z,0.00
2022-09-18T03:35:37.722Z,0.00
2022-09-18T03:36:37.738Z,0.00
2022-09-18T03:37:37.681Z,0.00
2022-09-18T03:38:37.782Z,0.00
2022-09-18T03:39:37.672Z,0.00
2022-09-18T03:40:37.774Z,0.00
2022-09-18T03:41:37.613Z,0.00
2022-09-18T03:42:37.602Z,0.00
2022-09-18T03:43:37.610Z,0.00
2022-09-18T03:44:37.589Z,0.00
2022-09-18T03:45:37.601Z,0.00
2022-09-18T03:46:37.638Z,0.00
2022-09-18T03:47:37.569Z,0.00
2022-09-18T03:48:37.599Z,0.00
2022-09-18T03:49:37.549Z,0.00
2022-09-18T03:50:37.579Z,0.00
2022-09-18T03:51:37.560Z,0.00
2022-09-18T03:52:37.545Z,0.00
2022-09-18T03:53:37.550Z,0.00
2022-09-18T03:54:37.489Z,0.00
2022-09-18T03:55:37.561Z,0.00
2022-09-18T03:56:37.479Z,0.00
2022-09-18T03:57:37.460Z,0.00
2022-09-18T03:58:37.441Z,0.00
2022-09-18T03:59:37.480Z,0.00
2022-09-18T04:00:37.429Z,0.00
2022-09-18T04:01:37.498Z,0.00
2022-09-18T04:02:37.457Z,0.00
2022-09-18T04:03:37.419Z,0.00
2022-09-18T04:04:37.413Z,0.00
2022-09-18T04:05:37.488Z,0.00
2022-09-18T04:06:37.399Z,0.00
2022-09-18T04:07:37.356Z,0.00
2022-09-18T04:08:37.339Z,0.00
2022-09-18T04:09:37.349Z,0.00
2022-09-18T04:10:37.369Z,0.00
2022-09-18T04:11:37.327Z,0.00
2022-09-18T04:12:37.299Z,0.00
2022-09-18T04:13:37.289Z,0.00
2022-09-18T04:14:37.329Z,0.00
2022-09-18T04:15:37.268Z,0.00
2022-09-18T04:16:37.299Z,0.00
2022-09-18T04:17:37.267Z,0.00
2022-09-18T04:18:37.259Z,0.00
2022-09-18T04:19:37.248Z,0.00
2022-09-18T04:20:37.209Z,0.00
2022-09-18T04:21:37.248Z,0.00
2022-09-18T04:22:37.199Z,0.00
2022-09-18T04:23:37.216Z,0.00
2022-09-18T04:24:37.183Z,0.00
2022-09-18T04:25:37.221Z,0.00
2022-09-18T04:26:37.149Z,0.00
2022-09-18T04:27:37.140Z,0.00
2022-09-18T04:28:37.127Z,0.00
2022-09-18T04:29:37.148Z,0.00
2022-09-18T04:30:37.109Z,0.00
2022-09-18T04:31:37.120Z,0.00
2022-09-18T04:32:37.097Z,0.00
2022-09-18T04:33:37.069Z,0.00
2022-09-18T04:34:37.077Z,0.00
2022-09-18T04:35:37.072Z,0.00
2022-09-18T04:36:37.038Z,0.00
2022-09-18T04:37:37.030Z,0.00
2022-09-18T04:38:37.011Z,0.00
2022-09-18T04:39:37.029Z,0.00
2022-09-18T04:40:37.094Z,0.00
2022-09-18T04:41:36.989Z,0.00
2022-09-18T04:42:36.972Z,0.00
2022-09-18T04:43:37.029Z,0.00
2022-09-18T04:44:36.958Z,0.00
2022-09-18T04:45:36.950Z,4.00
2022-09-18T04:46:37.015Z,0.00
2022-09-18T04:47:36.927Z,4.00
2022-09-18T04:48:36.919Z,4.00
2022-09-18T04:49:36.938Z,8.00
2022-09-18T04:50:36.926Z,8.00
2022-09-18T04:51:36.889Z,8.00
2022-09-18T04:52:36.847Z,8.00
2022-09-18T04:53:36.858Z,12.00
2022-09-18T04:54:36.857Z,12.00
2022-09-18T04:55:36.851Z,16.00
2022-09-18T04:56:36.835Z,16.00
2022-09-18T04:57:36.830Z,20.00
2022-09-18T04:58:36.807Z,20.00
2022-09-18T04:59:36.857Z,28.00
2022-09-18T05:00:36.825Z,28.00
2022-09-18T05:01:36.848Z,32.00
2022-09-18T05:02:36.797Z,36.00
2022-09-18T05:03:36.749Z,44.00
2022-09-18T05:04:36.726Z,48.00
2022-09-18T05:05:36.737Z,56.00
2022-09-18T05:06:36.736Z,60.00
2022-09-18T05:07:36.716Z,72.00
2022-09-18T05:08:36.692Z,80.00
2022-09-18T05:09:36.726Z,84.00
2022-09-18T05:10:36.668Z,92.00
2022-09-18T05:11:36.643Z,104.00
2022-09-18T05:12:36.637Z,112.00
2022-09-18T05:13:36.647Z,124.00
2022-09-18T05:14:36.646Z,132.00
2022-09-18T05:15:36.633Z,140.00
2022-09-18T05:16:36.682Z,144.00
2022-09-18T05:17:36.605Z,148.00
2022-09-18T05:18:36.585Z,152.00
2022-09-18T05:19:36.586Z,156.00
2022-09-18T05:20:36.645Z,164.00
2022-09-18T05:21:36.565Z,176.00
2022-09-18T05:22:36.523Z,184.00
2022-09-18T05:23:36.504Z,188.00
2022-09-18T05:24:36.535Z,200.00
2022-09-18T05:25:36.514Z,204.00
2022-09-18T05:26:36.488Z,212.00
2022-09-18T05:27:36.465Z,228.00
2022-09-18T05:28:36.476Z,248.00
2022-09-18T05:29:36.507Z,240.00
2022-09-18T05:30:36.447Z,248.00
2022-09-18T05:31:36.455Z,284.00
2022-09-18T05:32:36.435Z,280.00
2022-09-18T05:33:36.519Z,280.00
2022-09-18T05:34:36.400Z,268.00
2022-09-18T05:35:36.464Z,244.00
2022-09-18T05:36:36.485Z,208.00
2022-09-18T05:37:36.375Z,176.00
2022-09-18T05:38:36.334Z,160.00
2022-09-18T05:39:36.374Z,180.00
2022-09-18T05:40:36.497Z,208.00
2022-09-18T05:41:36.314Z,228.00
2022-09-18T05:42:36.315Z,256.00
2022-09-18T05:43:36.304Z,276.00
2022-09-18T05:44:36.284Z,296.00
2022-09-18T05:45:36.265Z,304.00
2022-09-18T05:46:36.330Z,312.00
2022-09-18T05:47:36.263Z,332.00
2022-09-18T05:48:36.242Z,340.00
2022-09-18T05:49:36.218Z,340.00
2022-09-18T05:50:36.280Z,352.00
2022-09-18T05:51:36.227Z,384.00
2022-09-18T05:52:36.213Z,416.00
2022-09-18T05:53:36.173Z,444.00
2022-09-18T05:54:36.181Z,476.00
2022-09-18T05:55:36.154Z,508.00
2022-09-18T05:56:36.134Z,524.00
2022-09-18T05:57:36.178Z,516.00
2022-09-18T05:58:36.144Z,476.00
2022-09-18T05:59:36.105Z,440.00
2022-09-18T06:00:36.118Z,508.00
2022-09-18T06:01:36.251Z,664.00
2022-09-18T06:02:36.255Z,740.00
2022-09-18T06:03:36.095Z,760.00
2022-09-18T06:04:36.064Z,748.00
2022-09-18T06:05:36.093Z,736.00
2022-09-18T06:06:36.084Z,732.00
2022-09-18T06:07:36.053Z,744.00
2022-09-18T06:08:36.070Z,864.00
2022-09-18T06:09:36.060Z,944.00
2022-09-18T06:10:36.064Z,916.00
2022-09-18T06:11:36.022Z,1008.00
2022-09-18T06:12:36.032Z,912.00
2022-09-18T06:13:36.003Z,1108.00
2022-09-18T06:14:35.962Z,1296.00
2022-09-18T06:15:35.962Z,1456.00
2022-09-18T06:16:41.339Z,1592.00
2022-09-18T06:17:36.964Z,1684.00
2022-09-18T06:18:35.945Z,1764.00
2022-09-18T06:19:35.957Z,1864.00
2022-09-18T06:20:35.954Z,1904.00
2022-09-18T06:21:35.903Z,1864.00
2022-09-18T06:22:35.882Z,1888.00
2022-09-18T06:23:35.911Z,1916.00
2022-09-18T06:24:35.873Z,1984.00
2022-09-18T06:25:35.880Z,2084.00
2022-09-18T06:26:35.871Z,2128.00
2022-09-18T06:27:35.862Z,2140.00
2022-09-18T06:28:35.853Z,2060.00
2022-09-18T06:29:35.829Z,1952.00
2022-09-18T06:30:35.842Z,1844.00
2022-09-18T06:31:35.886Z,1692.00
2022-09-18T06:32:35.769Z,1636.00
2022-09-18T06:33:35.754Z,1732.00
2022-09-18T06:34:38.779Z,1812.00
2022-09-18T06:35:35.771Z,1924.00
2022-09-18T06:36:35.752Z,2084.00
2022-09-18T06:37:36.764Z,2220.00
2022-09-18T06:38:36.782Z,2372.00
2022-09-18T06:39:35.683Z,2500.00
2022-09-18T06:40:35.758Z,2568.00
2022-09-18T06:41:35.711Z,2584.00
2022-09-18T06:42:35.692Z,2576.00
2022-09-18T06:43:35.653Z,2592.00
2022-09-18T06:44:35.651Z,2612.00
2022-09-18T06:45:35.701Z,2628.00
2022-09-18T06:46:35.672Z,2680.00
2022-09-18T06:47:35.648Z,2672.00
2022-09-18T06:48:35.609Z,2712.00
2022-09-18T06:49:35.817Z,2768.00
2022-09-18T06:50:35.580Z,2796.00
2022-09-18T06:51:35.553Z,2844.00
2022-09-18T06:52:35.620Z,2884.00
2022-09-18T06:53:35.572Z,2928.00
2022-09-18T06:54:35.590Z,2984.00
2022-09-18T06:55:35.549Z,3008.00
2022-09-18T06:56:35.900Z,3068.00
2022-09-18T06:57:35.538Z,3088.00
2022-09-18T06:58:35.573Z,3176.00
2022-09-18T06:59:35.480Z,3276.00
2022-09-18T07:00:35.598Z,3352.00
2022-09-18T07:01:35.533Z,3392.00
2022-09-18T07:02:35.600Z,3424.00
2022-09-18T07:03:35.460Z,3440.00
2022-09-18T07:04:35.450Z,3472.00
2022-09-18T07:05:35.451Z,3528.00
2022-09-18T07:06:35.414Z,3560.00
2022-09-18T07:07:35.412Z,3716.00
2022-09-18T07:08:35.390Z,3864.00
2022-09-18T07:09:35.390Z,3812.00
2022-09-18T07:10:35.430Z,3684.00
2022-09-18T07:11:35.422Z,3532.00
2022-09-18T07:12:35.340Z,3536.00
2022-09-18T07:13:35.374Z,3552.00
2022-09-18T07:14:35.335Z,3664.00
2022-09-18T07:15:35.333Z,3836.00
2022-09-18T07:16:35.400Z,3716.00
2022-09-18T07:17:35.271Z,3716.00
2022-09-18T07:18:35.249Z,3740.00
2022-09-18T07:19:35.260Z,3752.00
2022-09-18T07:20:35.225Z,3692.00
2022-09-18T07:21:35.240Z,3764.00
2022-09-18T07:22:35.250Z,3788.00
2022-09-18T07:23:35.239Z,3996.00
2022-09-18T07:24:35.220Z,4020.00
2022-09-18T07:25:35.212Z,3988.00
2022-09-18T07:26:35.206Z,3972.00
2022-09-18T07:27:35.170Z,3900.00
2022-09-18T07:28:35.170Z,3844.00
2022-09-18T07:29:35.198Z,3748.00
2022-09-18T07:30:35.180Z,3680.00
2022-09-18T07:31:35.196Z,3760.00
2022-09-18T07:32:35.149Z,3964.00
2022-09-18T07:33:35.122Z,4120.00
2022-09-18T07:34:35.090Z,4268.00
2022-09-18T07:35:35.089Z,4248.00
2022-09-18T07:36:35.110Z,4184.00
2022-09-18T07:37:35.077Z,4044.00
2022-09-18T07:38:35.086Z,3772.00
2022-09-18T07:39:35.051Z,3624.00
2022-09-18T07:40:35.183Z,3332.00
2022-09-18T07:41:35.047Z,3020.00
2022-09-18T07:42:35.039Z,3148.00
2022-09-18T07:43:35.019Z,3344.00
2022-09-18T07:44:35.340Z,4008.00
2022-09-18T07:45:34.985Z,3564.00
2022-09-18T07:46:34.996Z,3112.00
2022-09-18T07:47:35.029Z,2644.00
2022-09-18T07:48:34.977Z,3116.00
2022-09-18T07:49:34.959Z,3580.00
2022-09-18T07:50:34.962Z,3984.00
2022-09-18T07:51:34.939Z,3764.00
2022-09-18T07:52:34.939Z,3648.00
2022-09-18T07:53:34.909Z,3432.00
2022-09-18T07:54:34.898Z,3112.00
2022-09-18T07:55:34.940Z,2752.00
2022-09-18T07:56:34.869Z,2724.00
2022-09-18T07:57:34.889Z,2616.00
2022-09-18T07:58:34.879Z,2708.00
2022-09-18T07:59:34.888Z,2672.00
2022-09-18T08:00:34.834Z,2928.00
2022-09-18T08:01:34.898Z,3172.00
2022-09-18T08:02:34.911Z,3188.00
2022-09-18T08:03:39.154Z,3248.00
2022-09-18T08:04:35.799Z,2916.00
2022-09-18T08:05:34.758Z,2676.00
2022-09-18T08:06:34.788Z,2492.00
2022-09-18T08:07:34.758Z,2508.00
2022-09-18T08:08:34.729Z,2832.00
2022-09-18T08:09:34.730Z,2632.00
2022-09-18T08:10:34.763Z,2752.00
2022-09-18T08:11:34.716Z,2672.00
2022-09-18T08:12:34.727Z,2360.00
2022-09-18T08:13:34.708Z,2428.00
2022-09-18T08:14:34.689Z,2276.00
2022-09-18T08:15:34.681Z,2340.00
2022-09-18T08:16:34.776Z,2568.00
2022-09-18T08:17:34.684Z,2564.00
2022-09-18T08:18:34.670Z,2208.00
2022-09-18T08:19:34.688Z,2344.00
2022-09-18T08:20:34.648Z,2352.00
2022-09-18T08:21:34.658Z,2748.00
2022-09-18T08:22:34.598Z,2472.00
2022-09-18T08:23:34.598Z,2688.00
2022-09-18T08:24:34.617Z,2376.00
2022-09-18T08:25:34.636Z,2400.00
2022-09-18T08:26:34.580Z,2736.00
2022-09-18T08:27:34.562Z,3368.00
2022-09-18T08:28:34.558Z,3224.00
2022-09-18T08:29:34.538Z,2312.00
2022-09-18T08:30:34.529Z,2396.00
2022-09-18T08:31:34.585Z,3832.00
2022-09-18T08:32:34.518Z,4208.00
2022-09-18T08:33:34.466Z,3752.00
2022-09-18T08:34:34.458Z,3436.00
2022-09-18T08:35:34.479Z,3084.00
2022-09-18T08:36:34.523Z,2676.00
2022-09-18T08:37:34.908Z,2288.00
2022-09-18T08:38:34.408Z,2668.00
2022-09-18T08:39:34.490Z,2784.00
2022-09-18T08:40:34.625Z,2808.00
2022-09-18T08:41:34.397Z,2424.00
2022-09-18T08:42:34.407Z,1856.00
2022-09-18T08:43:34.400Z,1712.00
2022-09-18T08:44:34.400Z,1792.00
2022-09-18T08:45:34.407Z,1804.00
2022-09-18T08:46:34.379Z,2048.00
2022-09-18T08:47:34.348Z,2352.00
2022-09-18T08:48:34.300Z,2600.00
2022-09-18T08:49:34.269Z,2168.00
2022-09-18T08:50:38.398Z,1816.00
2022-09-18T08:51:34.287Z,1816.00
2022-09-18T08:52:34.257Z,2080.00
2022-09-18T08:53:34.307Z,2808.00
2022-09-18T08:54:34.298Z,2984.00
2022-09-18T08:55:34.257Z,3200.00
2022-09-18T08:56:34.251Z,4280.00
2022-09-18T08:57:34.218Z,5076.00
2022-09-18T08:58:34.240Z,5724.00
2022-09-18T08:59:34.186Z,5788.00
2022-09-18T09:00:34.281Z,5708.00
2022-09-18T09:01:34.168Z,5468.00
2022-09-18T09:02:34.229Z,5512.00
2022-09-18T09:03:34.136Z,5252.00
2022-09-18T09:04:34.137Z,4900.00
2022-09-18T09:05:34.165Z,4988.00
2022-09-18T09:06:34.128Z,5088.00
2022-09-18T09:07:34.117Z,5240.00
2022-09-18T09:08:34.116Z,5192.00
2022-09-18T09:09:34.126Z,5168.00
2022-09-18T09:10:34.066Z,5184.00
2022-09-18T09:11:34.040Z,5180.00
2022-09-18T09:12:34.077Z,5096.00
2022-09-18T09:13:34.046Z,4936.00
2022-09-18T09:14:55.438Z,4832.00
2022-09-18T09:15:35.055Z,4704.00
2022-09-18T09:16:34.078Z,4688.00
2022-09-18T09:17:34.018Z,4672.00
2022-09-18T09:18:33.979Z,4544.00
2022-09-18T09:19:33.977Z,4352.00
2022-09-18T09:20:33.996Z,4468.00
2022-09-18T09:21:33.938Z,4444.00
2022-09-18T09:22:33.936Z,4384.00
2022-09-18T09:23:33.924Z,4460.00
2022-09-18T09:24:33.934Z,4552.00
2022-09-18T09:25:33.898Z,4428.00
2022-09-18T09:26:33.926Z,4320.00
2022-09-18T09:27:33.890Z,4276.00
2022-09-18T09:28:33.897Z,4364.00
2022-09-18T09:29:33.887Z,4376.00
2022-09-18T09:30:33.881Z,4388.00
2022-09-18T09:31:33.906Z,4068.00
2022-09-18T09:32:33.818Z,4200.00
2022-09-18T09:33:33.816Z,4424.00
2022-09-18T09:34:33.805Z,4364.00
2022-09-18T09:35:33.806Z,4176.00
2022-09-18T09:36:33.785Z,4476.00
2022-09-18T09:37:33.996Z,4640.00
2022-09-18T09:38:33.766Z,4980.00
2022-09-18T09:39:33.766Z,5228.00
2022-09-18T09:40:33.879Z,5616.00
2022-09-18T09:41:33.717Z,5916.00
2022-09-18T09:42:33.755Z,5832.00
2022-09-18T09:43:33.717Z,5652.00
2022-09-18T09:44:33.701Z,5640.00
2022-09-18T09:45:33.687Z,5708.00
2022-09-18T09:46:33.738Z,5816.00
2022-09-18T09:47:33.681Z,6016.00
2022-09-18T09:48:33.645Z,6236.00
2022-09-18T09:49:33.670Z,6424.00
2022-09-18T09:50:33.657Z,6608.00
2022-09-18T09:51:33.639Z,6664.00
2022-09-18T09:52:33.600Z,6568.00
2022-09-18T09:53:33.616Z,6412.00
2022-09-18T09:54:33.597Z,6504.00
2022-09-18T09:55:33.616Z,6644.00
2022-09-18T09:56:33.637Z,6672.00
2022-09-18T09:57:33.588Z,7028.00
2022-09-18T09:58:33.565Z,7520.00
2022-09-18T09:59:33.540Z,7520.00
2022-09-18T10:00:33.663Z,7176.00
2022-09-18T10:01:33.559Z,7000.00
2022-09-18T10:02:33.504Z,7060.00
2022-09-18T10:03:33.485Z,7356.00
2022-09-18T10:04:33.500Z,7668.00
2022-09-18T10:05:33.521Z,7780.00
2022-09-18T10:06:33.477Z,7912.00
2022-09-18T10:07:33.456Z,8364.00
2022-09-18T10:08:33.475Z,8832.00
2022-09-18T10:09:33.495Z,8436.00
2022-09-18T10:10:33.415Z,6936.00
2022-09-18T10:11:33.425Z,5836.00
2022-09-18T10:12:33.421Z,5772.00
2022-09-18T10:13:33.392Z,6128.00
2022-09-18T10:14:33.383Z,6124.00
2022-09-18T10:15:33.396Z,5776.00
2022-09-18T10:16:33.501Z,5512.00
2022-09-18T10:17:33.424Z,5372.00
2022-09-18T10:18:33.322Z,5296.00
2022-09-18T10:19:33.355Z,5252.00
2022-09-18T10:20:33.368Z,5132.00
2022-09-18T10:21:33.365Z,4976.00
2022-09-18T10:22:33.345Z,4972.00
2022-09-18T10:23:34.075Z,5220.00
2022-09-18T10:24:33.300Z,5760.00
2022-09-18T10:25:33.331Z,6336.00
2022-09-18T10:26:33.344Z,6124.00
2022-09-18T10:27:33.276Z,5920.00
2022-09-18T10:28:33.220Z,5808.00
2022-09-18T10:29:35.920Z,5000.00
2022-09-18T10:30:33.318Z,3732.00
2022-09-18T10:31:33.263Z,3152.00
2022-09-18T10:32:33.198Z,3164.00
2022-09-18T10:33:33.198Z,3160.00
2022-09-18T10:34:33.220Z,2628.00
2022-09-18T10:35:33.174Z,2884.00
2022-09-18T10:36:33.177Z,4100.00
2022-09-18T10:37:33.205Z,4960.00
2022-09-18T10:38:33.168Z,5236.00
2022-09-18T10:39:33.190Z,5400.00
2022-09-18T10:40:33.256Z,4524.00
2022-09-18T10:41:33.155Z,3728.00
2022-09-18T10:42:33.095Z,4304.00
2022-09-18T10:43:33.094Z,4476.00
2022-09-18T10:44:33.106Z,4880.00
2022-09-18T10:45:33.147Z,5488.00
2022-09-18T10:46:33.145Z,5896.00
2022-09-18T10:47:33.096Z,6572.00
2022-09-18T10:48:33.066Z,7356.00
2022-09-18T10:49:33.046Z,7676.00
2022-09-18T10:50:34.561Z,7648.00
2022-09-18T10:51:33.031Z,8292.00
2022-09-18T10:52:32.998Z,8712.00
2022-09-18T10:53:33.009Z,8808.00
2022-09-18T10:54:32.969Z,8684.00
2022-09-18T10:55:32.961Z,8340.00
2022-09-18T10:56:32.976Z,7852.00
2022-09-18T10:57:32.939Z,7300.00
2022-09-18T10:58:32.914Z,6968.00
2022-09-18T10:59:32.924Z,6832.00
2022-09-18T11:00:32.982Z,6840.00
2022-09-18T11:01:32.943Z,7000.00
2022-09-18T11:02:32.939Z,7188.00
2022-09-18T11:03:32.897Z,7164.00
2022-09-18T11:04:32.880Z,6712.00
2022-09-18T11:05:32.879Z,6080.00
2022-09-18T11:06:32.849Z,6292.00
2022-09-18T11:07:32.976Z,6696.00
2022-09-18T11:08:32.826Z,6484.00
2022-09-18T11:09:32.801Z,5928.00
2022-09-18T11:10:32.811Z,5600.00
2022-09-18T11:11:32.825Z,5636.00
2022-09-18T11:12:32.798Z,5692.00
2022-09-18T11:13:32.783Z,5940.00
2022-09-18T11:14:32.778Z,6756.00
2022-09-18T11:15:32.762Z,7184.00
2022-09-18T11:16:32.810Z,6996.00
2022-09-18T11:17:32.754Z,6644.00
2022-09-18T11:18:32.705Z,6476.00
2022-09-18T11:19:32.668Z,5960.00
2022-09-18T11:20:32.657Z,5548.00
2022-09-18T11:21:32.823Z,5788.00
2022-09-18T11:22:32.681Z,5884.00
2022-09-18T11:23:32.677Z,5816.00
2022-09-18T11:24:32.637Z,5956.00
2022-09-18T11:25:32.659Z,5916.00
2022-09-18T11:26:32.595Z,5400.00
2022-09-18T11:27:32.605Z,5180.00
2022-09-18T11:28:32.592Z,5308.00
2022-09-18T11:29:32.607Z,5280.00
2022-09-18T11:30:32.557Z,5024.00
2022-09-18T11:31:32.597Z,4396.00
2022-09-18T11:32:32.557Z,3720.00
2022-09-18T11:33:32.550Z,2832.00
2022-09-18T11:34:32.517Z,2076.00
2022-09-18T11:35:32.558Z,1936.00
2022-09-18T11:36:32.528Z,2652.00
2022-09-18T11:37:32.527Z,3112.00
2022-09-18T11:38:32.544Z,3024.00
2022-09-18T11:39:32.476Z,3224.00
2022-09-18T11:40:32.564Z,3616.00
2022-09-18T11:41:32.466Z,3636.00
2022-09-18T11:42:32.467Z,3080.00
2022-09-18T11:43:32.472Z,3072.00
2022-09-18T11:44:32.436Z,3180.00
2022-09-18T11:45:32.414Z,2904.00
2022-09-18T11:46:32.478Z,2940.00
2022-09-18T11:47:32.416Z,3268.00
2022-09-18T11:48:32.403Z,3084.00
2022-09-18T11:49:32.346Z,3272.00
2022-09-18T11:50:32.336Z,2928.00
2022-09-18T11:51:32.357Z,2544.00
2022-09-18T11:52:32.351Z,2392.00
2022-09-18T11:53:32.353Z,2384.00
2022-09-18T11:54:32.307Z,2276.00
2022-09-18T11:55:32.337Z,2112.00
2022-09-18T11:56:32.316Z,2316.00
2022-09-18T11:57:32.367Z,2220.00
2022-09-18T11:58:32.277Z,2056.00
2022-09-18T11:59:32.288Z,2308.00
2022-09-18T12:00:32.258Z,2704.00
2022-09-18T12:01:32.266Z,3100.00
2022-09-18T12:02:32.371Z,2768.00
2022-09-18T12:03:32.352Z,2384.00
2022-09-18T12:04:32.197Z,2316.00
2022-09-18T12:05:32.198Z,2408.00
2022-09-18T12:06:32.177Z,2376.00
2022-09-18T12:07:45.540Z,1972.00
2022-09-18T12:08:30.820Z,1928.00
2022-09-18T12:09:30.792Z,2268.00
2022-09-18T12:10:30.794Z,2596.00
2022-09-18T12:11:30.747Z,2284.00
2022-09-18T12:12:30.748Z,2600.00
2022-09-18T12:13:30.735Z,2684.00
2022-09-18T12:14:31.175Z,2460.00
2022-09-18T12:15:30.714Z,2380.00
2022-09-18T12:16:30.753Z,2840.00
2022-09-18T12:17:30.704Z,3380.00
2022-09-18T12:18:30.682Z,3488.00
2022-09-18T12:19:30.690Z,3524.00
2022-09-18T12:20:30.674Z,3472.00
2022-09-18T12:21:30.706Z,3632.00
2022-09-18T12:22:30.675Z,3656.00
2022-09-18T12:23:30.647Z,3640.00
2022-09-18T12:24:30.616Z,3620.00
2022-09-18T12:25:30.636Z,3536.00
2022-09-18T12:26:30.614Z,3436.00
2022-09-18T12:27:30.605Z,3444.00
2022-09-18T12:28:30.584Z,3496.00
2022-09-18T12:29:30.622Z,3504.00
2022-09-18T12:30:30.522Z,3436.00
2022-09-18T12:31:30.579Z,3312.00
2022-09-18T12:32:30.548Z,3248.00
2022-09-18T12:33:34.038Z,3304.00
2022-09-18T12:34:30.477Z,3404.00
2022-09-18T12:35:30.468Z,3476.00